createdAt,value
2018-02-22T00:01:12.784Z,68.78
2018-02-22T00:03:48.072Z,68.50
2018-02-22T00:06:22.800Z,68.50
2018-02-22T00:08:57.799Z,68.56
2018-02-22T00:11:32.851Z,68.57
2018-02-22T00:14:07.203Z,68.26
2018-02-22T00:16:41.960Z,68.45
2018-02-22T00:19:16.732Z,68.60
2018-02-22T00:21:51.891Z,68.81
2018-02-22T00:24:26.939Z,68.98
2018-02-22T00:27:03.107Z,68.73
2018-02-22T00:29:37.931Z,68.61
2018-02-22T00:32:12.839Z,68.83
2018-02-22T00:34:47.875Z,69.00
2018-02-22T00:37:22.871Z,69.13
2018-02-22T00:39:58.168Z,68.99
2018-02-22T00:42:33.792Z,69.20
2018-02-22T00:45:09.056Z,69.43
2018-02-22T00:47:44.270Z,69.75
2018-02-22T00:50:19.107Z,70.04
2018-02-22T00:52:53.891Z,70.34
2018-02-22T00:55:28.899Z,70.20
2018-02-22T00:58:04.076Z,69.99
2018-02-22T01:00:38.982Z,70.48
2018-02-22T01:03:14.290Z,70.87
2018-02-22T01:05:49.467Z,70.90
2018-02-22T01:08:24.472Z,70.83
2018-02-22T01:10:59.915Z,71.41
2018-02-22T01:13:34.874Z,71.87
2018-02-22T01:16:09.743Z,72.11
2018-02-22T01:18:44.211Z,72.41
2018-02-22T01:21:19.431Z,72.47
2018-02-22T01:23:54.984Z,72.55
2018-02-22T01:26:29.519Z,72.62
2018-02-22T01:29:05.240Z,73.02
2018-02-22T01:31:40.162Z,73.04
2018-02-22T01:34:15.037Z,73.13
2018-02-22T01:36:49.957Z,73.14
2018-02-22T01:39:24.962Z,73.30
2018-02-22T01:42:00.112Z,73.54
2018-02-22T01:44:34.451Z,73.47
2018-02-22T01:47:09.220Z,73.10
2018-02-22T01:49:43.964Z,73.23
2018-02-22T01:52:18.439Z,73.35
2018-02-22T01:54:53.191Z,73.22
2018-02-22T01:57:27.973Z,73.28
2018-02-22T02:00:03.153Z,73.38
2018-02-22T02:02:38.951Z,73.41
2018-02-22T02:05:14.315Z,73.54
2018-02-22T02:07:49.179Z,73.70
2018-02-22T02:10:24.336Z,73.72
2018-02-22T02:12:59.503Z,73.75
2018-02-22T02:15:34.119Z,73.67
2018-02-22T02:18:09.191Z,73.67
2018-02-22T02:20:44.150Z,73.59
2018-02-22T02:23:19.823Z,73.72
2018-02-22T02:25:54.371Z,73.83
2018-02-22T02:28:29.975Z,73.88
2018-02-22T02:31:05.300Z,73.99
2018-02-22T02:33:40.265Z,74.11
2018-02-22T02:36:15.411Z,74.33
2018-02-22T02:38:50.215Z,74.61
2018-02-22T02:41:25.195Z,75.02
2018-02-22T02:44:00.276Z,75.20
2018-02-22T02:46:35.523Z,75.52
2018-02-22T02:49:10.440Z,75.83
2018-02-22T02:51:45.332Z,76.00
2018-02-22T02:54:20.148Z,76.06
2018-02-22T02:56:55.281Z,76.22
2018-02-22T02:59:30.205Z,76.32
2018-02-22T03:02:04.838Z,76.43
2018-02-22T03:04:40.077Z,76.84
2018-02-22T03:07:14.738Z,77.13
2018-02-22T03:09:50.184Z,77.18
2018-02-22T03:12:24.975Z,77.21
2018-02-22T03:14:59.685Z,77.31
2018-02-22T03:17:34.260Z,77.45
2018-02-22T03:20:09.447Z,77.47
2018-02-22T03:22:44.411Z,77.63
2018-02-22T03:25:19.451Z,77.69
2018-02-22T03:27:54.545Z,78.30
2018-02-22T03:30:30.112Z,78.87
2018-02-22T03:33:05.320Z,79.09
2018-02-22T03:35:40.497Z,79.22
2018-02-22T03:38:15.630Z,79.36
2018-02-22T03:40:50.775Z,79.43
2018-02-22T03:43:26.215Z,79.41
2018-02-22T03:46:01.394Z,79.42
2018-02-22T03:48:36.713Z,79.38
2018-02-22T03:51:11.508Z,79.34
2018-02-22T03:53:46.372Z,79.27
2018-02-22T03:56:21.623Z,79.26
2018-02-22T03:58:56.264Z,79.27
2018-02-22T04:01:30.627Z,79.50
2018-02-22T04:04:05.779Z,79.77
2018-02-22T04:06:40.402Z,80.05
2018-02-22T04:09:15.543Z,80.33
2018-02-22T04:11:50.487Z,80.53
2018-02-22T04:14:25.524Z,80.67
2018-02-22T04:17:00.495Z,80.79
2018-02-22T04:19:35.539Z,80.81
2018-02-22T04:22:10.830Z,80.78
2018-02-22T04:24:46.430Z,80.73
2018-02-22T04:27:21.745Z,80.78
2018-02-22T04:29:56.700Z,80.77
2018-02-22T04:32:32.391Z,80.71
2018-02-22T04:35:07.709Z,80.69
2018-02-22T04:37:42.352Z,80.72
2018-02-22T04:40:17.696Z,80.69
2018-02-22T04:42:52.380Z,80.67
2018-02-22T04:45:27.467Z,80.63
2018-02-22T04:48:03.755Z,80.58
2018-02-22T04:50:38.468Z,80.52
2018-02-22T04:53:13.558Z,80.51
2018-02-22T04:55:47.940Z,80.49
2018-02-22T04:58:22.491Z,80.49
2018-02-22T05:00:57.472Z,80.47
2018-02-22T05:03:32.464Z,80.46
2018-02-22T05:06:07.676Z,80.43
2018-02-22T05:08:42.828Z,80.42
2018-02-22T05:11:17.571Z,80.51
2018-02-22T05:13:52.861Z,80.55
2018-02-22T05:16:28.440Z,80.58
2018-02-22T05:19:03.836Z,80.51
2018-02-22T05:21:38.990Z,80.54
2018-02-22T05:24:14.412Z,80.57
2018-02-22T05:26:49.772Z,80.66
2018-02-22T05:29:25.107Z,80.86
2018-02-22T05:32:00.467Z,80.83
2018-02-22T05:34:35.635Z,80.79
2018-02-22T05:37:10.740Z,80.81
2018-02-22T05:39:46.127Z,80.90
2018-02-22T05:42:20.748Z,80.98
2018-02-22T05:44:55.579Z,81.03
2018-02-22T05:47:30.624Z,80.95
2018-02-22T05:50:05.823Z,80.92
2018-02-22T05:52:40.846Z,80.83
2018-02-22T05:55:16.104Z,80.94
2018-02-22T05:57:51.913Z,81.05
2018-02-22T06:00:26.912Z,81.12
2018-02-22T06:03:02.111Z,81.20
2018-02-22T06:05:37.588Z,81.29
2018-02-22T06:08:12.735Z,81.36
2018-02-22T06:10:48.575Z,81.28
2018-02-22T06:13:23.640Z,81.15
2018-02-22T06:15:58.578Z,81.30
2018-02-22T06:18:33.638Z,81.31
2018-02-22T06:21:08.827Z,81.26
2018-02-22T06:23:43.976Z,81.35
2018-02-22T06:26:19.840Z,81.45
2018-02-22T06:28:54.683Z,81.49
2018-02-22T06:31:30.011Z,81.60
2018-02-22T06:34:04.935Z,81.78
2018-02-22T06:36:40.220Z,81.72
2018-02-22T06:39:15.019Z,81.67
2018-02-22T06:41:49.618Z,81.69
2018-02-22T06:44:24.756Z,81.72
2018-02-22T06:46:59.181Z,81.71
2018-02-22T06:49:33.906Z,81.70
2018-02-22T06:52:09.219Z,81.78
2018-02-22T06:54:43.971Z,82.69
2018-02-22T06:57:18.988Z,84.46
2018-02-22T06:59:53.992Z,86.73
2018-02-22T07:02:29.187Z,86.72
2018-02-22T07:05:04.120Z,86.70
2018-02-22T07:07:38.836Z,87.26
2018-02-22T07:10:13.883Z,87.99
2018-02-22T07:12:49.180Z,87.22
2018-02-22T07:15:24.704Z,85.58
2018-02-22T07:17:59.858Z,84.95
2018-02-22T07:20:34.267Z,84.15
2018-02-22T07:23:16.888Z,83.46
2018-02-22T07:25:45.075Z,82.37
2018-02-22T07:28:20.348Z,82.20
2018-02-22T07:30:55.606Z,81.47
2018-02-22T07:33:31.071Z,81.71
2018-02-22T07:36:05.764Z,81.65
2018-02-22T07:38:40.796Z,82.89
2018-02-22T07:41:15.928Z,82.31
2018-02-22T07:43:50.863Z,82.52
2018-02-22T07:46:26.235Z,81.85
2018-02-22T07:49:01.656Z,81.33
2018-02-22T07:51:36.135Z,81.20
2018-02-22T07:54:10.764Z,80.11
2018-02-22T07:56:46.068Z,79.63
2018-02-22T07:59:20.848Z,79.29
2018-02-22T08:01:55.428Z,78.91
2018-02-22T08:04:30.304Z,78.46
2018-02-22T08:07:05.740Z,78.87
2018-02-22T08:09:40.787Z,77.60
2018-02-22T08:12:15.423Z,77.70
2018-02-22T08:14:49.870Z,78.24
2018-02-22T08:17:24.979Z,78.32
2018-02-22T08:20:00.008Z,78.47
2018-02-22T08:22:35.768Z,77.25
2018-02-22T08:25:10.976Z,76.61
2018-02-22T08:27:45.327Z,75.84
2018-02-22T08:30:20.935Z,76.11
2018-02-22T08:32:56.019Z,74.71
2018-02-22T08:35:30.824Z,73.71
2018-02-22T08:38:05.222Z,74.50
2018-02-22T08:40:40.147Z,74.62
2018-02-22T08:43:15.463Z,73.75
2018-02-22T08:45:50.536Z,73.81
2018-02-22T08:48:25.208Z,73.73
2018-02-22T08:50:59.971Z,75.69
2018-02-22T08:53:35.315Z,76.41
2018-02-22T08:56:10.097Z,78.09
2018-02-22T08:58:44.965Z,77.96
2018-02-22T09:01:24.499Z,78.46
2018-02-22T09:03:59.878Z,79.58
2018-02-22T09:06:35.264Z,80.19
2018-02-22T09:09:09.884Z,80.01
2018-02-22T09:11:45.127Z,80.11
2018-02-22T09:14:19.491Z,78.53
2018-02-22T09:16:54.994Z,79.00
2018-02-22T09:19:30.092Z,78.58
2018-02-22T09:22:05.387Z,79.37
2018-02-22T09:24:40.115Z,78.89
2018-02-22T09:27:14.912Z,78.55
2018-02-22T09:29:49.977Z,78.87
2018-02-22T09:32:25.445Z,79.49
2018-02-22T09:35:00.336Z,80.75
2018-02-22T09:37:35.575Z,81.61
2018-02-22T09:40:09.939Z,80.96
2018-02-22T09:42:45.262Z,81.31
2018-02-22T09:45:20.187Z,82.85
2018-02-22T09:47:55.448Z,83.07
2018-02-22T09:50:30.327Z,82.31
2018-02-22T09:53:05.595Z,82.31
2018-02-22T09:55:40.159Z,81.83
2018-02-22T09:58:15.517Z,81.76
2018-02-22T10:00:50.493Z,82.43
2018-02-22T10:03:25.131Z,81.75
2018-02-22T10:06:00.048Z,78.77
2018-02-22T10:08:35.031Z,78.68
2018-02-22T10:11:10.331Z,78.90
2018-02-22T10:13:45.515Z,78.06
2018-02-22T10:16:21.604Z,79.20
2018-02-22T10:18:56.281Z,79.85
2018-02-22T10:21:31.567Z,79.58
2018-02-22T10:24:06.479Z,78.85
2018-02-22T10:26:41.172Z,76.88
2018-02-22T10:29:16.736Z,76.15
2018-02-22T10:31:51.680Z,74.56
2018-02-22T10:34:27.067Z,73.43
2018-02-22T10:37:02.356Z,73.30
2018-02-22T10:39:37.395Z,72.81
2018-02-22T10:42:12.504Z,72.87
2018-02-22T10:44:47.583Z,70.02
2018-02-22T10:47:23.071Z,68.20
2018-02-22T10:49:58.427Z,67.63
2018-02-22T10:52:33.380Z,67.69
2018-02-22T10:55:08.432Z,66.68
2018-02-22T10:57:43.644Z,67.62
2018-02-22T11:00:17.999Z,68.53
2018-02-22T11:02:52.703Z,68.42
2018-02-22T11:05:27.645Z,67.90
2018-02-22T11:08:02.832Z,68.36
2018-02-22T11:10:38.167Z,68.47
2018-02-22T11:13:13.175Z,66.78
2018-02-22T11:15:48.211Z,65.63
2018-02-22T11:18:23.238Z,63.99
2018-02-22T11:20:57.831Z,62.58
2018-02-22T11:23:33.607Z,61.18
2018-02-22T11:26:08.603Z,61.17
2018-02-22T11:28:43.636Z,61.09
2018-02-22T11:31:19.191Z,61.13
2018-02-22T11:33:54.259Z,62.05
2018-02-22T11:36:29.140Z,63.58
2018-02-22T11:39:04.103Z,64.96
2018-02-22T11:41:39.219Z,65.46
2018-02-22T11:44:13.967Z,65.73
2018-02-22T11:46:49.416Z,66.69
2018-02-22T11:49:23.782Z,65.06
2018-02-22T11:51:59.228Z,64.44
2018-02-22T11:54:34.383Z,63.82
2018-02-22T11:57:09.667Z,62.10
2018-02-22T11:59:44.395Z,62.73
2018-02-22T12:02:19.628Z,60.78
2018-02-22T12:04:54.680Z,61.08
2018-02-22T12:07:29.806Z,59.33
2018-02-22T12:10:04.691Z,60.04
2018-02-22T12:12:40.171Z,61.51
2018-02-22T12:15:15.314Z,59.88
2018-02-22T12:17:51.352Z,58.95
2018-02-22T12:20:25.728Z,59.53
2018-02-22T12:23:00.459Z,59.44
2018-02-22T12:25:35.592Z,59.70
2018-02-22T12:28:10.712Z,60.91
2018-02-22T12:30:45.529Z,61.51
2018-02-22T12:33:20.504Z,62.84
2018-02-22T12:35:55.736Z,63.37
2018-02-22T12:38:30.835Z,61.97
2018-02-22T12:41:05.868Z,61.67
2018-02-22T12:43:41.440Z,60.00
2018-02-22T12:46:16.636Z,59.49
2018-02-22T12:48:51.097Z,59.41
2018-02-22T12:51:26.455Z,59.22
2018-02-22T12:54:01.486Z,58.83
2018-02-22T12:56:36.471Z,57.60
2018-02-22T12:59:11.536Z,57.02
2018-02-22T13:01:46.507Z,56.71
2018-02-22T13:04:21.527Z,55.28
2018-02-22T13:06:56.520Z,55.27
2018-02-22T13:09:30.688Z,55.20
2018-02-22T13:12:05.423Z,55.48
2018-02-22T13:14:40.563Z,55.52
2018-02-22T13:17:14.919Z,55.84
2018-02-22T13:19:49.687Z,56.09
2018-02-22T13:22:24.403Z,56.20
2018-02-22T13:24:58.792Z,56.52
2018-02-22T13:27:33.531Z,56.50
2018-02-22T13:30:08.728Z,55.98
2018-02-22T13:32:54.880Z,55.16
2018-02-22T13:35:29.251Z,53.33
2018-02-22T13:38:16.778Z,53.86
2018-02-22T13:40:51.491Z,52.85
2018-02-22T13:43:27.313Z,54.56
2018-02-22T13:46:02.112Z,54.63
2018-02-22T13:48:48.122Z,54.77
2018-02-22T13:51:22.963Z,54.62
2018-02-22T13:53:57.588Z,54.69
2018-02-22T13:56:43.611Z,54.12
2018-02-22T13:59:18.038Z,55.52
2018-02-22T14:02:03.511Z,54.35
2018-02-22T14:04:38.231Z,53.72
2018-02-22T14:07:12.687Z,53.81
2018-02-22T14:09:47.735Z,55.14
2018-02-22T14:12:22.460Z,53.93
2018-02-22T14:14:57.791Z,52.89
2018-02-22T14:17:32.819Z,51.93
2018-02-22T14:20:07.951Z,52.63
2018-02-22T14:22:42.840Z,52.12
2018-02-22T14:25:18.428Z,51.42
2018-02-22T14:27:53.728Z,51.48
2018-02-22T14:30:28.636Z,51.20
2018-02-22T14:33:03.163Z,50.56
2018-02-22T14:35:37.780Z,50.05
2018-02-22T14:38:12.816Z,49.85
2018-02-22T14:40:47.998Z,50.34
2018-02-22T14:43:23.012Z,52.27
2018-02-22T14:45:57.776Z,53.08
2018-02-22T14:48:32.913Z,54.28
2018-02-22T14:51:08.324Z,53.96
2018-02-22T14:53:43.115Z,54.20
2018-02-22T14:56:18.574Z,55.34
2018-02-22T14:58:53.100Z,56.10
2018-02-22T15:01:27.693Z,56.23
2018-02-22T15:04:03.056Z,56.38
2018-02-22T15:06:37.673Z,57.26
2018-02-22T15:09:12.728Z,58.30
2018-02-22T15:11:47.893Z,58.32
2018-02-22T15:14:23.097Z,58.21
2018-02-22T15:16:57.967Z,57.31
2018-02-22T15:19:33.091Z,56.67
2018-02-22T15:22:07.755Z,56.36
2018-02-22T15:24:42.760Z,55.45
2018-02-22T15:27:17.811Z,55.83
2018-02-22T15:29:52.754Z,56.45
2018-02-22T15:32:27.735Z,56.12
2018-02-22T15:35:03.003Z,55.63
2018-02-22T15:37:38.187Z,55.91
2018-02-22T15:40:13.032Z,56.18
2018-02-22T15:42:47.847Z,56.19
2018-02-22T15:45:22.315Z,55.65
2018-02-22T15:47:57.755Z,54.86
2018-02-22T15:50:32.419Z,55.49
2018-02-22T15:53:07.986Z,56.43
2018-02-22T15:55:42.663Z,56.75
2018-02-22T15:58:18.056Z,57.02
2018-02-22T16:00:52.699Z,56.49
2018-02-22T16:03:27.604Z,55.68
2018-02-22T16:06:02.876Z,55.52
2018-02-22T16:08:37.775Z,55.86
2018-02-22T16:11:12.240Z,56.13
2018-02-22T16:13:47.319Z,56.13
2018-02-22T16:16:22.896Z,55.56
2018-02-22T16:18:57.853Z,55.60
2018-02-22T16:21:32.931Z,55.42
2018-02-22T16:24:08.195Z,55.75
2018-02-22T16:26:43.779Z,55.96
2018-02-22T16:29:19.135Z,55.64
2018-02-22T16:31:54.107Z,55.45
2018-02-22T16:34:29.368Z,55.66
2018-02-22T16:37:05.073Z,56.13
2018-02-22T16:39:40.404Z,55.99
2018-02-22T16:42:15.004Z,56.27
2018-02-22T16:44:50.230Z,56.10
2018-02-22T16:47:25.983Z,55.85
2018-02-22T16:50:01.120Z,55.90
2018-02-22T16:52:35.861Z,56.03
2018-02-22T16:55:11.367Z,56.16
2018-02-22T16:57:46.473Z,56.38
2018-02-22T17:00:22.011Z,56.72
2018-02-22T17:02:57.230Z,57.00
2018-02-22T17:05:32.019Z,57.09
2018-02-22T17:08:06.992Z,57.18
2018-02-22T17:10:42.120Z,57.55
2018-02-22T17:13:16.578Z,57.82
2018-02-22T17:15:52.118Z,57.83
2018-02-22T17:18:27.015Z,58.00
2018-02-22T17:21:02.184Z,57.93
2018-02-22T17:23:37.255Z,58.49
2018-02-22T17:26:17.611Z,58.58
2018-02-22T17:28:57.477Z,58.73
2018-02-22T17:31:37.880Z,59.01
2018-02-22T17:34:13.143Z,58.85
2018-02-22T17:36:47.811Z,58.83
2018-02-22T17:39:36.996Z,58.77
2018-02-22T17:42:11.843Z,59.34
2018-02-22T17:44:46.895Z,59.40
2018-02-22T17:47:22.159Z,59.61
2018-02-22T17:49:57.522Z,59.72
2018-02-22T17:52:32.650Z,59.93
2018-02-22T17:55:08.047Z,60.05
2018-02-22T17:57:42.503Z,60.28
2018-02-22T18:00:18.147Z,60.62
2018-02-22T18:02:52.899Z,60.83
2018-02-22T18:05:27.060Z,60.87
2018-02-22T18:08:02.043Z,61.08
2018-02-22T18:10:37.023Z,61.08
2018-02-22T18:13:12.204Z,61.26
2018-02-22T18:15:46.988Z,61.42
2018-02-22T18:18:22.007Z,61.38
2018-02-22T18:20:56.939Z,61.39
2018-02-22T18:23:31.975Z,61.79
2018-02-22T18:26:07.219Z,61.79
2018-02-22T18:28:41.990Z,61.87
2018-02-22T18:31:17.277Z,61.86
2018-02-22T18:33:52.163Z,61.92
2018-02-22T18:36:27.200Z,62.11
2018-02-22T18:39:07.660Z,62.20
2018-02-22T18:41:48.215Z,62.29
2018-02-22T18:44:28.716Z,62.45
2018-02-22T18:47:03.276Z,62.71
2018-02-22T18:49:38.293Z,62.78
2018-02-22T18:52:12.657Z,63.20
2018-02-22T18:54:48.583Z,63.66
2018-02-22T18:57:23.608Z,63.80
2018-02-22T18:59:58.844Z,64.38
2018-02-22T19:02:34.364Z,64.87
2018-02-22T19:07:44.404Z,65.45
2018-02-22T19:10:19.353Z,65.63
2018-02-22T19:12:54.442Z,65.50
2018-02-22T19:15:29.399Z,65.61
2018-02-22T19:18:05.734Z,65.14
2018-02-22T19:20:41.302Z,65.22
2018-02-22T19:23:16.261Z,65.36
2018-02-22T19:25:51.483Z,65.67
2018-02-22T19:28:26.100Z,65.82
2018-02-22T19:31:00.807Z,65.90
2018-02-22T19:33:35.289Z,65.97
2018-02-22T19:36:10.785Z,66.10
2018-02-22T19:38:45.407Z,66.39
2018-02-22T19:41:20.340Z,66.47
2018-02-22T19:43:55.665Z,66.66
2018-02-22T19:46:30.387Z,66.83
2018-02-22T19:49:05.765Z,66.84
2018-02-22T19:51:40.823Z,66.93
2018-02-22T19:54:16.012Z,66.93
2018-02-22T19:56:50.784Z,67.05
2018-02-22T19:59:25.717Z,67.02
2018-02-22T20:02:00.751Z,67.04
2018-02-22T20:04:36.321Z,67.17
2018-02-22T20:07:11.322Z,67.05
2018-02-22T20:09:46.401Z,67.01
2018-02-22T20:12:21.756Z,67.05
2018-02-22T20:14:56.780Z,67.16
2018-02-22T20:17:32.755Z,67.17
2018-02-22T20:20:07.695Z,67.07
2018-02-22T20:22:42.308Z,67.21
2018-02-22T20:25:17.656Z,67.27
2018-02-22T20:27:52.780Z,67.29
2018-02-22T20:30:27.533Z,67.50
2018-02-22T20:33:02.605Z,67.66
2018-02-22T20:35:37.735Z,68.12
2018-02-22T20:38:12.612Z,68.25
2018-02-22T20:40:47.875Z,68.43
2018-02-22T20:43:22.575Z,68.88
2018-02-22T20:45:57.728Z,69.25
2018-02-22T20:48:33.267Z,69.72
2018-02-22T20:51:10.799Z,69.74
2018-02-22T20:53:45.778Z,69.70
2018-02-22T20:56:20.519Z,69.61
2018-02-22T20:58:55.311Z,69.57
2018-02-22T21:01:30.315Z,69.60
2018-02-22T21:04:06.027Z,69.57
2018-02-22T21:06:40.741Z,69.57
2018-02-22T21:09:16.047Z,69.70
2018-02-22T21:11:51.295Z,69.94
2018-02-22T21:14:25.931Z,69.93
2018-02-22T21:17:00.562Z,70.02
2018-02-22T21:19:35.684Z,70.18
2018-02-22T21:22:11.027Z,70.34
2018-02-22T21:24:45.764Z,70.56
2018-02-22T21:27:20.176Z,70.58
2018-02-22T21:29:55.603Z,70.60
2018-02-22T21:32:30.646Z,70.62
2018-02-22T21:35:06.363Z,70.53
2018-02-22T21:37:41.522Z,70.63
2018-02-22T21:40:16.791Z,70.84
2018-02-22T21:42:51.823Z,70.92
2018-02-22T21:45:26.671Z,71.01
2018-02-22T21:48:01.120Z,71.04
2018-02-22T21:50:35.751Z,71.08
2018-02-22T21:53:10.936Z,71.21
2018-02-22T21:55:45.975Z,71.43
2018-02-22T21:58:20.908Z,71.54
2018-02-22T22:00:55.683Z,71.73
2018-02-22T22:03:30.643Z,71.87
2018-02-22T22:06:05.951Z,71.96
2018-02-22T22:08:40.808Z,72.10
2018-02-22T22:11:15.975Z,72.18
2018-02-22T22:13:51.023Z,71.99
2018-02-22T22:16:26.596Z,72.12
2018-02-22T22:19:01.721Z,72.24
2018-02-22T22:21:36.724Z,72.35
2018-02-22T22:24:11.074Z,72.48
2018-02-22T22:26:46.623Z,72.35
2018-02-22T22:29:22.005Z,72.39
2018-02-22T22:31:56.871Z,72.53
2018-02-22T22:34:32.053Z,72.58
2018-02-22T22:37:06.951Z,72.61
2018-02-22T22:39:42.089Z,72.70
2018-02-22T22:42:17.560Z,72.85
2018-02-22T22:44:52.743Z,72.85
2018-02-22T22:47:27.900Z,73.00
2018-02-22T22:50:02.952Z,73.15
2018-02-22T22:52:38.232Z,73.40
2018-02-22T22:55:13.623Z,73.57
2018-02-22T22:57:48.746Z,73.82
2018-02-22T23:00:23.759Z,74.03
2018-02-22T23:02:58.219Z,74.30
2018-02-22T23:05:32.923Z,74.50
2018-02-22T23:08:08.012Z,74.71
2018-02-22T23:10:43.760Z,74.87
2018-02-22T23:13:18.856Z,75.17
2018-02-22T23:15:53.838Z,75.44
2018-02-22T23:18:28.760Z,75.62
2018-02-22T23:21:04.070Z,75.70
2018-02-22T23:23:39.032Z,75.93
2018-02-22T23:26:14.363Z,76.15
2018-02-22T23:28:48.860Z,76.47
2018-02-22T23:31:24.011Z,76.71
2018-02-22T23:33:58.271Z,77.18
2018-02-22T23:36:32.829Z,77.33
2018-02-22T23:39:07.697Z,77.89
2018-02-22T23:41:51.087Z,78.30
2018-02-22T23:44:25.986Z,78.45
2018-02-22T23:47:00.801Z,78.69
2018-02-22T23:49:35.804Z,78.78
2018-02-22T23:52:10.964Z,79.05
2018-02-22T23:54:46.465Z,79.07
2018-02-22T23:57:21.123Z,79.26
2018-02-22T23:59:56.347Z,79.47
